Time;durP1;ratioP1;P1;durP2;ratioP2;P2;SDS_P1;SDS_P2;PMS_P1;PMS_P2;Temp;Humidity;BMP_temperature;BMP_pressure;BME280_temperature;BME280_humidity;BME280_pressure;Samples;Min_cycle;Max_cycle;Signal;HPM_P1;HPM_P2
2022/01/06 00:02:01;;;;;;;;;;;;;;;;;;5051016;28;19913;-87
2022/01/06 00:04:27;;;;;;;;;;;;;;;;;;5032501;28;20015;-88
2022/01/06 00:06:52;;;;;;;;;;;;;;;;;;5034856;28;20295;-88
2022/01/06 00:09:18;;;;;;;;;;;;;;;;;;5034558;28;19923;-86
2022/01/06 00:11:44;;;;;;;;;;;;;;;;;;5031865;28;19921;-88
2022/01/06 00:14:20;;;;;;;;;;;;;;;;;;5034971;28;19967;-86
2022/01/06 00:25:11;;;;;;;;;;;;;;;;;;5024420;28;20270;-87
2022/01/06 00:27:36;;;;;;;;;;;;;;;;;;5023515;28;20008;-87
2022/01/06 00:30:04;;;;;;;;;;;;;;;;;;5023756;28;19924;-86
2022/01/06 00:32:29;;;;;;;;;;;;;;;;;;5007791;28;20326;-86
2022/01/06 00:34:54;;;;;;;;;;;;;;;;;;5009027;28;19921;-86
2022/01/06 00:37:19;;;;;;;;;;;;;;;;;;5005419;28;19940;-83
2022/01/06 00:39:45;;;;;;;;;;;;;;;;;;5025748;28;19929;-84
2022/01/06 00:42:10;;;;;;;;;;;;;;;;;;5023776;28;19913;-86
2022/01/06 00:44:35;;;;;;;;;;;;;;;;;;5023737;28;19925;-87
2022/01/06 00:47:00;;;;;;;;;;;;;;;;;;5025513;28;20578;-84
2022/01/06 00:49:28;;;;;;;;;;;;;;;;;;5025040;28;19980;-85
2022/01/06 00:51:56;;;;;;;;;;;;;;;;;;5023488;28;19914;-86
2022/01/06 00:54:21;;;;;;;;;;;;;;;;;;5007671;28;19951;-83
2022/01/06 00:56:49;;;;;;;;;;;;;;;;;;5007248;28;20000;-83
2022/01/06 00:59:14;;;;;;;;;;;;;;;;;;5017145;28;19927;-84
2022/01/06 01:01:39;;;;;;;;;;;;;;;;;;5027503;28;19913;-85
2022/01/06 01:04:04;;;;;;;;;;;;;;;;;;5027649;28;19927;-85
2022/01/06 01:06:29;;;;;;;;;;;;;;;;;;5023395;28;19913;-85
2022/01/06 01:08:55;;;;;;;;;;;;;;;;;;5023677;28;19914;-83
2022/01/06 01:11:20;;;;;;;;;;;;;;;;;;5026558;28;19913;-84
2022/01/06 01:13:56;;;;;;;;;;;;;;;;;;5003313;28;20552;-86
2022/01/06 01:16:26;;;;;;;;;;;;;;;;;;5002830;28;20070;-85
2022/01/06 01:18:56;;;;;;;;;;;;;;;;;;4998866;28;19918;-86
2022/01/06 01:21:26;;;;;;;;;;;;;;;;;;5015321;28;19914;-85
2022/01/06 01:23:52;;;;;;;;;;;;;;;;;;5027283;28;19918;-86
2022/01/06 01:26:17;;;;;;;;;;;;;;;;;;5033892;28;19936;-85
2022/01/06 01:28:45;;;;;;;;;;;;;;;;;;5035268;28;19913;-84
2022/01/06 01:31:25;;;;;;;;;;;;;;;;;;5038672;28;19987;-85
2022/01/06 01:33:56;;;;;;;;;;;;;;;;;;5038673;28;19949;-84
2022/01/06 01:36:21;;;;;;;;;;;;;;;;;;5038403;28;20397;-85
2022/01/06 01:38:46;;;;;;;;;;;;;;;;;;5038818;28;20017;-86
2022/01/06 01:41:11;;;;;;;;;;;;;;;;;;5038436;28;19913;-82
2022/01/06 01:43:37;;;;;;;;;;;;;;;;;;5054592;28;19917;-85
2022/01/06 01:46:10;;;;;;;;;;;;;;;;;;5038675;28;19921;-86
2022/01/06 01:48:39;;;;;;;;;;;;;;;;;;5038538;28;20312;-86
2022/01/06 01:51:04;;;;;;;;;;;;;;;;;;5037530;28;19913;-84
2022/01/06 01:53:29;;;;;;;;;;;;;;;;;;5038928;28;19936;-86
2022/01/06 01:55:55;;;;;;;;;;;;;;;;;;5038496;28;20309;-86
2022/01/06 01:58:20;;;;;;;;;;;;;;;;;;5037184;28;19932;-86
2022/01/06 02:00:48;;;;;;;;;;;;;;;;;;5037946;28;19928;-86
2022/01/06 02:03:13;;;;;;;;;;;;;;;;;;5039337;28;19913;-85
2022/01/06 02:05:38;;;;;;;;;;;;;;;;;;5038145;28;20385;-86
2022/01/06 02:08:05;;;;;;;;;;;;;;;;;;5038723;28;20319;-84
2022/01/06 02:10:30;;;;;;;;;;;;;;;;;;5038293;28;19913;-86
2022/01/06 02:13:00;;;;;;;;;;;;;;;;;;5037712;28;19927;-83
2022/01/06 02:15:26;;;;;;;;;;;;;;;;;;5037175;28;20003;-85
2022/01/06 02:17:51;;;;;;;;;;;;;;;;;;5037569;28;20361;-85
2022/01/06 02:20:17;;;;;;;;;;;;;;;;;;5038609;28;19923;-82
2022/01/06 02:22:43;;;;;;;;;;;;;;;;;;5037376;28;19917;-85
2022/01/06 02:25:09;;;;;;;;;;;;;;;;;;5048088;28;19928;-82
2022/01/06 02:27:34;;;;;;;;;;;;;;;;;;5053812;28;19924;-84
2022/01/06 02:30:00;;;;;;;;;;;;;;;;;;5044669;28;19913;-84
2022/01/06 02:32:25;;;;;;;;;;;;;;;;;;5037906;28;20270;-85
2022/01/06 02:34:51;;;;;;;;;;;;;;;;;;5036993;28;19913;-84
2022/01/06 02:37:16;;;;;;;;;;;;;;;;;;5036892;28;19921;-85
2022/01/06 02:39:42;;;;;;;;;;;;;;;;;;5036605;28;19913;-82
2022/01/06 02:42:07;;;;;;;;;;;;;;;;;;5051540;28;19914;-83
2022/01/06 02:44:34;;;;;;;;;;;;;;;;;;5036332;28;19967;-85
2022/01/06 02:46:59;;;;;;;;;;;;;;;;;;5035582;28;19953;-83
2022/01/06 02:49:24;;;;;;;;;;;;;;;;;;5036535;28;19913;-83
2022/01/06 02:51:49;;;;;;;;;;;;;;;;;;5036394;28;19969;-83
2022/01/06 02:54:14;;;;;;;;;;;;;;;;;;5051808;28;20116;-84
2022/01/06 02:56:42;;;;;;;;;;;;;;;;;;5036632;28;20192;-85
2022/01/06 02:59:07;;;;;;;;;;;;;;;;;;5036377;28;19917;-83
2022/01/06 03:01:36;;;;;;;;;;;;;;;;;;5016462;28;19928;-84
2022/01/06 03:04:01;;;;;;;;;;;;;;;;;;5031158;28;19913;-83
2022/01/06 03:06:27;;;;;;;;;;;;;;;;;;5032476;28;19948;-84
2022/01/06 03:08:52;;;;;;;;;;;;;;;;;;5035178;28;20262;-86
2022/01/06 03:11:24;;;;;;;;;;;;;;;;;;5034984;28;19913;-86
2022/01/06 03:13:50;;;;;;;;;;;;;;;;;;5035728;28;19964;-83
2022/01/06 03:16:15;;;;;;;;;;;;;;;;;;5036091;28;19954;-84
2022/01/06 03:18:40;;;;;;;;;;;;;;;;;;5035819;28;19960;-85
2022/01/06 03:21:05;;;;;;;;;;;;;;;;;;5035870;28;20015;-84
2022/01/06 03:23:33;;;;;;;;;;;;;;;;;;5035344;28;20003;-84
2022/01/06 03:25:58;;;;;;;;;;;;;;;;;;5035556;28;19913;-84
2022/01/06 03:28:23;;;;;;;;;;;;;;;;;;5034909;28;19923;-85
2022/01/06 03:30:48;;;;;;;;;;;;;;;;;;5035667;28;20019;-83
2022/01/06 03:33:14;;;;;;;;;;;;;;;;;;5034315;28;19995;-84
2022/01/06 03:35:39;;;;;;;;;;;;;;;;;;5035577;28;19920;-82
2022/01/06 03:38:04;;;;;;;;;;;;;;;;;;5035400;28;19925;-83
2022/01/06 03:40:31;;;;;;;;;;;;;;;;;;5035535;28;19924;-85
2022/01/06 03:42:57;;;;;;;;;;;;;;;;;;5035218;28;20063;-83
2022/01/06 03:45:22;;;;;;;;;;;;;;;;;;5035370;28;19963;-84
2022/01/06 03:47:47;;;;;;;;;;;;;;;;;;5051125;28;19913;-83
2022/01/06 03:50:13;;;;;;;;;;;;;;;;;;5035207;28;20361;-85
2022/01/06 03:52:38;;;;;;;;;;;;;;;;;;5034352;28;19913;-84
2022/01/06 03:55:08;;;;;;;;;;;;;;;;;;5034340;28;19914;-83
2022/01/06 03:57:34;;;;;;;;;;;;;;;;;;5034265;28;19998;-86
2022/01/06 03:59:59;;;;;;;;;;;;;;;;;;5034951;28;20259;-84
2022/01/06 04:02:25;;;;;;;;;;;;;;;;;;5035282;28;19924;-85
2022/01/06 04:04:50;;;;;;;;;;;;;;;;;;5035071;28;19939;-84
2022/01/06 04:07:15;;;;;;;;;;;;;;;;;;5035078;28;19925;-84
2022/01/06 04:09:40;;;;;;;;;;;;;;;;;;5033720;28;19917;-83
2022/01/06 04:12:10;;;;;;;;;;;;;;;;;;5027270;28;20004;-84
2022/01/06 04:14:36;;;;;;;;;;;;;;;;;;5015467;28;19956;-84
2022/01/06 04:17:01;;;;;;;;;;;;;;;;;;5015180;28;19914;-85
2022/01/06 04:19:27;;;;;;;;;;;;;;;;;;5034792;28;19921;-86
2022/01/06 04:21:52;;;;;;;;;;;;;;;;;;5034165;28;19924;-85
2022/01/06 04:24:18;;;;;;;;;;;;;;;;;;5033859;28;19946;-83
2022/01/06 04:26:43;;;;;;;;;;;;;;;;;;5033908;28;20014;-85
2022/01/06 04:29:08;;;;;;;;;;;;;;;;;;5033533;28;19956;-83
2022/01/06 04:31:33;;;;;;;;;;;;;;;;;;5034977;28;20017;-83
2022/01/06 04:33:58;;;;;;;;;;;;;;;;;;5034866;28;19952;-84
2022/01/06 04:36:24;;;;;;;;;;;;;;;;;;5034635;28;19917;-85
2022/01/06 04:38:49;;;;;;;;;;;;;;;;;;5033534;28;19929;-85
2022/01/06 04:41:14;;;;;;;;;;;;;;;;;;5035291;28;19913;-84
2022/01/06 04:43:39;;;;;;;;;;;;;;;;;;5034831;28;19917;-85
2022/01/06 04:46:05;;;;;;;;;;;;;;;;;;5034888;28;19924;-85
2022/01/06 04:48:30;;;;;;;;;;;;;;;;;;5035044;28;19928;-85
2022/01/06 04:50:55;;;;;;;;;;;;;;;;;;5033963;28;19964;-87
2022/01/06 04:53:23;;;;;;;;;;;;;;;;;;5035003;28;19955;-84
2022/01/06 04:55:49;;;;;;;;;;;;;;;;;;5034399;28;20000;-87
2022/01/06 04:58:15;;;;;;;;;;;;;;;;;;5034806;28;19928;-83
2022/01/06 05:00:40;;;;;;;;;;;;;;;;;;5042919;28;19973;-84
2022/01/06 05:03:05;;;;;;;;;;;;;;;;;;5049601;28;19917;-83
2022/01/06 05:05:30;;;;;;;;;;;;;;;;;;5043221;28;19913;-85
2022/01/06 05:07:55;;;;;;;;;;;;;;;;;;5054357;28;19928;-86
2022/01/06 05:10:21;;;;;;;;;;;;;;;;;;5038940;28;19913;-83
2022/01/06 05:12:48;;;;;;;;;;;;;;;;;;5038298;28;20324;-85
2022/01/06 05:15:16;;;;;;;;;;;;;;;;;;5037771;28;20005;-85
2022/01/06 05:17:41;;;;;;;;;;;;;;;;;;5037561;28;19940;-85
2022/01/06 05:20:07;;;;;;;;;;;;;;;;;;5038588;28;19925;-85
2022/01/06 05:22:33;;;;;;;;;;;;;;;;;;5037130;28;19913;-84
2022/01/06 05:24:58;;;;;;;;;;;;;;;;;;5037121;28;19920;-84
2022/01/06 05:27:24;;;;;;;;;;;;;;;;;;5037940;28;20088;-85
2022/01/06 05:29:49;;;;;;;;;;;;;;;;;;5037265;28;19924;-84
2022/01/06 05:32:16;;;;;;;;;;;;;;;;;;5038020;28;19913;-84
2022/01/06 05:34:44;;;;;;;;;;;;;;;;;;5037633;28;19927;-86
2022/01/06 05:37:09;;;;;;;;;;;;;;;;;;5037779;28;20354;-86
2022/01/06 05:39:34;;;;;;;;;;;;;;;;;;5037776;28;19931;-83
2022/01/06 05:41:59;;;;;;;;;;;;;;;;;;5037888;28;19913;-86
2022/01/06 05:44:25;;;;;;;;;;;;;;;;;;5024813;28;19917;-86
2022/01/06 05:46:51;;;;;;;;;;;;;;;;;;5018087;28;20258;-85
2022/01/06 05:49:16;;;;;;;;;;;;;;;;;;5017837;28;19925;-86
2022/01/06 05:51:41;;;;;;;;;;;;;;;;;;5017897;28;20007;-86
2022/01/06 05:54:07;;;;;;;;;;;;;;;;;;5036607;28;19917;-86
2022/01/06 05:56:32;;;;;;;;;;;;;;;;;;5037534;28;20324;-85
2022/01/06 05:59:00;;;;;;;;;;;;;;;;;;5036535;28;19921;-85
2022/01/06 06:01:25;;;;;;;;;;;;;;;;;;5037261;28;20471;-86
2022/01/06 06:03:54;;;;;;;;;;;;;;;;;;5053252;28;19913;-85
2022/01/06 06:06:19;;;;;;;;;;;;;;;;;;5037295;28;19940;-85
2022/01/06 06:08:47;;;;;;;;;;;;;;;;;;5037105;28;19916;-82
2022/01/06 06:11:12;;;;;;;;;;;;;;;;;;5052713;28;19951;-86
2022/01/06 06:13:38;;;;;;;;;;;;;;;;;;5037457;28;19948;-86
2022/01/06 06:16:05;;;;;;;;;;;;;;;;;;5037177;28;19952;-84
2022/01/06 06:18:31;;;;;;;;;;;;;;;;;;5036847;28;19967;-86
2022/01/06 06:20:56;;;;;;;;;;;;;;;;;;5033618;28;19952;-86
2022/01/06 06:23:21;;;;;;;;;;;;;;;;;;5037435;28;19948;-87
2022/01/06 06:25:46;;;;;;;;;;;;;;;;;;5037197;28;19921;-84
2022/01/06 06:28:11;;;;;;;;;;;;;;;;;;5037294;28;19921;-86
2022/01/06 06:30:37;;;;;;;;;;;;;;;;;;5052614;28;19924;-84
2022/01/06 06:33:02;;;;;;;;;;;;;;;;;;5037068;28;19924;-86
2022/01/06 06:35:30;;;;;;;;;;;;;;;;;;5036704;28;19917;-86
2022/01/06 06:37:57;;;;;;;;;;;;;;;;;;5036917;28;19952;-86
2022/01/06 06:40:23;;;;;;;;;;;;;;;;;;5038189;28;19913;-83
2022/01/06 06:42:49;;;;;;;;;;;;;;;;;;5038103;28;20361;-87
2022/01/06 06:45:15;;;;;;;;;;;;;;;;;;5052698;28;19924;-83
2022/01/06 06:47:40;;;;;;;;;;;;;;;;;;5035872;28;19913;-86
2022/01/06 06:50:06;;;;;;;;;;;;;;;;;;5036414;28;20530;-84
2022/01/06 06:52:31;;;;;;;;;;;;;;;;;;5036436;28;19928;-84
2022/01/06 06:54:56;;;;;;;;;;;;;;;;;;5036692;28;19948;-84
2022/01/06 06:57:24;;;;;;;;;;;;;;;;;;5035775;28;19929;-86
2022/01/06 06:59:49;;;;;;;;;;;;;;;;;;5036343;28;19996;-84
2022/01/06 07:02:14;;;;;;;;;;;;;;;;;;5036482;28;19959;-86
2022/01/06 07:04:39;;;;;;;;;;;;;;;;;;5031905;28;20019;-84
2022/01/06 07:07:04;;;;;;;;;;;;;;;;;;5052554;28;20034;-85
2022/01/06 07:09:30;;;;;;;;;;;;;;;;;;5035705;28;20361;-85
2022/01/06 07:11:55;;;;;;;;;;;;;;;;;;5029029;28;19924;-86
2022/01/06 07:14:20;;;;;;;;;;;;;;;;;;5016042;28;19933;-87
2022/01/06 07:16:45;;;;;;;;;;;;;;;;;;5016753;28;19928;-83
2022/01/06 07:19:10;;;;;;;;;;;;;;;;;;5024515;28;19929;-86
2022/01/06 07:21:38;;;;;;;;;;;;;;;;;;5036096;28;19928;-86
2022/01/06 07:24:05;;;;;;;;;;;;;;;;;;5036270;28;19960;-86
2022/01/06 07:26:32;;;;;;;;;;;;;;;;;;5035736;28;19971;-85
2022/01/06 07:29:01;;;;;;;;;;;;;;;;;;5051927;28;19940;-87
2022/01/06 07:31:26;;;;;;;;;;;;;;;;;;5036569;28;20054;-87
2022/01/06 07:33:53;;;;;;;;;;;;;;;;;;5048030;28;19949;-84
2022/01/06 07:36:19;;;;;;;;;;;;;;;;;;5053452;28;19979;-86
2022/01/06 07:38:46;;;;;;;;;;;;;;;;;;5043005;28;20342;-86
2022/01/06 07:41:14;;;;;;;;;;;;;;;;;;5037010;28;19941;-86
2022/01/06 07:43:39;;;;;;;;;;;;;;;;;;5036070;28;19913;-87
2022/01/06 07:46:07;;;;;;;;;;;;;;;;;;5035859;28;19917;-85
2022/01/06 07:48:48;;;;;;;;;;;;;;;;;;5036659;28;19956;-82
2022/01/06 07:51:15;;;;;;;;;;;;;;;;;;5036251;28;19967;-85
2022/01/06 07:53:40;;;;;;;;;;;;;;;;;;5036243;28;19924;-83
2022/01/06 07:56:05;;;;;;;;;;;;;;;;;;5031428;28;19918;-85
2022/01/06 07:58:31;;;;;;;;;;;;;;;;;;5016056;28;20250;-85
2022/01/06 08:00:56;;;;;;;;;;;;;;;;;;5015326;28;20335;-84
2022/01/06 08:03:21;;;;;;;;;;;;;;;;;;5029144;28;20377;-84
2022/01/06 08:05:46;;;;;;;;;;;;;;;;;;5032364;28;20258;-85
2022/01/06 08:08:11;;;;;;;;;;;;;;;;;;5032842;28;19940;-86
2022/01/06 08:10:39;;;;;;;;;;;;;;;;;;5035709;28;20309;-86
2022/01/06 08:13:04;;;;;;;;;;;;;;;;;;5036012;28;19932;-85
2022/01/06 08:15:32;;;;;;;;;;;;;;;;;;5035434;28;19914;-83
2022/01/06 08:17:57;;;;;;;;;;;;;;;;;;5034949;28;19917;-86
2022/01/06 08:20:25;;;;;;;;;;;;;;;;;;5037160;28;20208;-87
2022/01/06 08:22:50;;;;;;;;;;;;;;;;;;5035472;28;19917;-85
2022/01/06 08:25:18;;;;;;;;;;;;;;;;;;5035304;28;19928;-84
2022/01/06 08:27:43;;;;;;;;;;;;;;;;;;5034662;28;19925;-87
2022/01/06 08:30:08;;;;;;;;;;;;;;;;;;5034559;28;19928;-84
2022/01/06 08:32:34;;;;;;;;;;;;;;;;;;5035100;28;19923;-84
2022/01/06 08:35:02;;;;;;;;;;;;;;;;;;5034432;28;19917;-83
2022/01/06 08:37:30;;;;;;;;;;;;;;;;;;5034412;28;19929;-83
2022/01/06 08:39:55;;;;;;;;;;;;;;;;;;5037386;28;20314;-83
2022/01/06 08:42:20;;;;;;;;;;;;;;;;;;5038986;28;19960;-82
2022/01/06 08:44:46;;;;;;;;;;;;;;;;;;5038979;28;19949;-84
2022/01/06 08:47:13;;;;;;;;;;;;;;;;;;5038515;28;19917;-83
2022/01/06 08:49:41;;;;;;;;;;;;;;;;;;5038426;28;20265;-83
2022/01/06 08:52:09;;;;;;;;;;;;;;;;;;5038793;28;19913;-84
2022/01/06 08:54:34;;;;;;;;;;;;;;;;;;5037380;28;19917;-84
2022/01/06 08:57:00;;;;;;;;;;;;;;;;;;5038506;28;20211;-82
2022/01/06 08:59:25;;;;;;;;;;;;;;;;;;5038639;28;19913;-82
2022/01/06 09:01:51;;;;;;;;;;;;;;;;;;5038552;28;19917;-84
2022/01/06 09:04:20;;;;;;;;;;;;;;;;;;5038864;28;20300;-83
2022/01/06 09:06:45;;;;;;;;;;;;;;;;;;5038179;28;20318;-81
2022/01/06 09:09:10;;;;;;;;;;;;;;;;;;5037347;28;19968;-83
2022/01/06 09:11:36;;;;;;;;;;;;;;;;;;5034035;28;19967;-82
2022/01/06 09:14:01;;;;;;;;;;;;;;;;;;5038013;28;19999;-82
2022/01/06 09:16:26;;;;;;;;;;;;;;;;;;5037728;28;19929;-82
2022/01/06 09:18:52;;;;;;;;;;;;;;;;;;5038014;28;19967;-80
2022/01/06 09:21:22;;;;;;;;;;;;;;;;;;5037804;28;19929;-83
2022/01/06 09:23:47;;;;;;;;;;;;;;;;;;5037504;28;19920;-83
2022/01/06 09:26:13;;;;;;;;;;;;;;;;;;5020458;28;19920;-83
2022/01/06 09:28:38;;;;;;;;;;;;;;;;;;5037228;28;19920;-83
2022/01/06 09:31:03;;;;;;;;;;;;;;;;;;5037548;28;20008;-84
2022/01/06 09:33:28;;;;;;;;;;;;;;;;;;5037865;28;19944;-83
2022/01/06 09:35:54;;;;;;;;;;;;;;;;;;5037889;28;19975;-81
2022/01/06 09:38:22;;;;;;;;;;;;;;;;;;5037485;28;19952;-82
2022/01/06 09:40:47;;;;;;;;;;;;;;;;;;5037763;28;19924;-83
2022/01/06 09:43:12;;;;;;;;;;;;;;;;;;5036844;28;20019;-86
2022/01/06 09:45:38;;;;;;;;;;;;;;;;;;5037677;28;19953;-82
2022/01/06 09:48:04;;;;;;;;;;;;;;;;;;5036733;28;19975;-83
2022/01/06 09:50:30;;;;;;;;;;;;;;;;;;5036797;28;19913;-82
2022/01/06 09:52:55;;;;;;;;;;;;;;;;;;5038017;28;19919;-84
2022/01/06 09:55:21;;;;;;;;;;;;;;;;;;5037954;28;19985;-82
2022/01/06 09:57:57;;;;;;;;;;;;;;;;;;5037541;28;19925;-83
2022/01/06 10:00:24;;;;;;;;;;;;;;;;;;5038035;28;19923;-83
2022/01/06 10:02:59;;;;;;;;;;;;;;;;;;5045163;28;19913;-82
2022/01/06 10:05:26;;;;;;;;;;;;;;;;;;5048065;28;19921;-84
2022/01/06 10:07:54;;;;;;;;;;;;;;;;;;5039572;28;19924;-84
2022/01/06 10:10:24;;;;;;;;;;;;;;;;;;5037934;28;20000;-83
2022/01/06 10:12:56;;;;;;;;;;;;;;;;;;5037370;28;19921;-83
2022/01/06 10:15:25;;;;;;;;;;;;;;;;;;5036011;28;19917;-83
2022/01/06 10:17:50;;;;;;;;;;;;;;;;;;5037056;28;19960;-81
2022/01/06 10:20:17;;;;;;;;;;;;;;;;;;5037768;28;19924;-84
2022/01/06 10:22:52;;;;;;;;;;;;;;;;;;5052884;28;19925;-84
2022/01/06 10:25:18;;;;;;;;;;;;;;;;;;5037066;28;19932;-83
2022/01/06 10:27:44;;;;;;;;;;;;;;;;;;5036384;28;19913;-83
2022/01/06 10:30:10;;;;;;;;;;;;;;;;;;5037000;28;19931;-88
2022/01/06 10:32:37;;;;;;;;;;;;;;;;;;5042062;28;19917;-83
2022/01/06 10:35:05;;;;;;;;;;;;;;;;;;5036699;28;19987;-81
2022/01/06 10:37:44;;;;;;;;;;;;;;;;;;5036668;28;19948;-85
2022/01/06 10:40:09;;;;;;;;;;;;;;;;;;5036910;28;20531;-84
2022/01/06 10:42:38;;;;;;;;;;;;;;;;;;5036655;28;19921;-86
2022/01/06 10:45:13;;;;;;;;;;;;;;;;;;5036485;28;19916;-85
2022/01/06 10:47:42;;;;;;;;;;;;;;;;;;5034094;28;19913;-84
2022/01/06 10:50:07;;;;;;;;;;;;;;;;;;5036281;28;19944;-81
2022/01/06 10:52:32;;;;;;;;;;;;;;;;;;5036532;28;19964;-83
2022/01/06 10:55:07;;;;;;;;;;;;;;;;;;5036051;28;19986;-83
2022/01/06 10:57:32;;;;;;;;;;;;;;;;;;5034945;28;19928;-82
2022/01/06 11:00:00;;;;;;;;;;;;;;;;;;5036209;28;19917;-80
2022/01/06 11:02:25;;;;;;;;;;;;;;;;;;5035049;28;20011;-80
2022/01/06 11:04:50;;;;;;;;;;;;;;;;;;5037016;28;19917;-84
2022/01/06 11:07:27;;;;;;;;;;;;;;;;;;5034319;28;20047;-83
2022/01/06 11:10:22;;;;;;;;;;;;;;;;;;5035521;28;19990;-84
2022/01/06 11:16:05;;;;;;;;;;;;;;;;;;5027121;28;20294;-87
2022/01/06 11:18:33;;;;;;;;;;;;;;;;;;5020393;28;19975;-88
2022/01/06 11:21:24;;;;;;;;;;;;;;;;;;5036147;28;19921;-89
2022/01/06 11:23:59;;;;;;;;;;;;;;;;;;5034167;28;19917;-89
2022/01/06 11:26:25;;;;;;;;;;;;;;;;;;5036912;28;19924;-89
2022/01/06 11:28:54;;;;;;;;;;;;;;;;;;5036784;28;20239;-81
2022/01/06 11:31:24;;;;;;;;;;;;;;;;;;5037844;28;20355;-89
2022/01/06 11:33:49;;;;;;;;;;;;;;;;;;5041277;28;19924;-90
2022/01/06 11:36:24;;;;;;;;;;;;;;;;;;5039860;28;19917;-94
2022/01/06 11:38:50;;;;;;;;;;;;;;;;;;5019408;28;19917;-93
2022/01/06 11:41:15;;;;;;;;;;;;;;;;;;5027575;28;19917;-90
2022/01/06 11:43:44;;;;;;;;;;;;;;;;;;5021031;28;19971;-88
2022/01/06 11:46:09;;;;;;;;;;;;;;;;;;5013664;28;20019;-89
2022/01/06 11:48:53;;;;;;;;;;;;;;;;;;4999318;28;20147;-81
2022/01/06 11:51:22;;;;;;;;;;;;;;;;;;5028794;28;19936;-81
2022/01/06 11:53:50;;;;;;;;;;;;;;;;;;5032823;28;19921;-81
2022/01/06 11:56:15;;;;;;;;;;;;;;;;;;5028919;28;19913;-80
2022/01/06 11:58:43;;;;;;;;;;;;;;;;;;5030358;28;19988;-80
2022/01/06 12:01:14;;;;;;;;;;;;;;;;;;5034678;28;19952;-80
2022/01/06 12:03:40;;;;;;;;;;;;;;;;;;5035134;28;19913;-80
2022/01/06 12:06:08;;;;;;;;;;;;;;;;;;5035194;28;19981;-80
2022/01/06 12:08:40;;;;;;;;;;;;;;;;;;5018408;28;19913;-80
2022/01/06 12:11:26;;;;;;;;;;;;;;;;;;5017378;28;20265;-80
2022/01/06 12:13:52;;;;;;;;;;;;;;;;;;5033928;28;20381;-80
2022/01/06 12:16:26;;;;;;;;;;;;;;;;;;5017968;28;19917;-80
2022/01/06 12:18:54;;;;;;;;;;;;;;;;;;5016935;28;20368;-80
2022/01/06 12:21:19;;;;;;;;;;;;;;;;;;5035020;28;19917;-80
2022/01/06 12:23:45;;;;;;;;;;;;;;;;;;5028078;28;19917;-80
2022/01/06 12:26:12;;;;;;;;;;;;;;;;;;5040153;28;20018;-80
2022/01/06 12:28:47;;;;;;;;;;;;;;;;;;5033631;28;20450;-81
2022/01/06 12:31:15;;;;;;;;;;;;;;;;;;5037414;28;19928;-76
2022/01/06 12:33:48;;;;;;;;;;;;;;;;;;5043002;28;19939;-82
2022/01/06 12:36:18;;;;;;;;;;;;;;;;;;5047349;28;19944;-81
2022/01/06 12:38:43;;;;;;;;;;;;;;;;;;5042360;28;20386;-81
2022/01/06 12:41:08;;;;;;;;;;;;;;;;;;5036932;28;20338;-75
2022/01/06 12:43:37;;;;;;;;;;;;;;;;;;5038615;28;19971;-77
2022/01/06 12:46:04;;;;;;;;;;;;;;;;;;5049334;28;20365;-78
2022/01/06 12:48:33;;;;;;;;;;;;;;;;;;5034217;28;19927;-77
2022/01/06 12:50:58;;;;;;;;;;;;;;;;;;5034304;28;19913;-77
2022/01/06 12:53:30;;;;;;;;;;;;;;;;;;5034239;28;20231;-79
2022/01/06 12:55:56;;;;;;;;;;;;;;;;;;5029404;28;19940;-78
2022/01/06 12:58:27;;;;;;;;;;;;;;;;;;5014061;28;20335;-78
2022/01/06 13:00:53;;;;;;;;;;;;;;;;;;5020832;28;20025;-77
2022/01/06 13:06:22;;;;;;;;;;;;;;;;;;5029400;28;19978;-79
2022/01/06 13:09:01;;;;;;;;;;;;;;;;;;5033933;28;20021;-79
2022/01/06 13:11:30;;;;;;;;;;;;;;;;;;5032437;28;20293;-79
2022/01/06 13:14:08;;;;;;;;;;;;;;;;;;5032760;28;20011;-77
2022/01/06 13:16:36;;;;;;;;;;;;;;;;;;5029629;28;19999;-78
2022/01/06 13:19:03;;;;;;;;;;;;;;;;;;5033150;28;19921;-79
2022/01/06 13:21:33;;;;;;;;;;;;;;;;;;5033853;28;20007;-78
2022/01/06 13:24:10;;;;;;;;;;;;;;;;;;5037987;28;20346;-81
2022/01/06 13:26:50;;;;;;;;;;;;;;;;;;5035636;28;20028;-82
2022/01/06 13:29:43;;;;;;;;;;;;;;;;;;5036751;28;19917;-79
2022/01/06 13:32:36;;;;;;;;;;;;;;;;;;5049002;28;20027;-77
2022/01/06 13:35:23;;;;;;;;;;;;;;;;;;5029837;28;20343;-77
2022/01/06 13:37:48;;;;;;;;;;;;;;;;;;5042906;28;20007;-78
2022/01/06 13:40:15;;;;;;;;;;;;;;;;;;5037564;28;19967;-76
2022/01/06 13:42:42;;;;;;;;;;;;;;;;;;5034911;28;19956;-83
2022/01/06 13:45:27;;;;;;;;;;;;;;;;;;5035395;28;19978;-77
2022/01/06 13:48:02;;;;;;;;;;;;;;;;;;5034376;28;20006;-77
2022/01/06 13:53:21;;;;;;;;;;;;;;;;;;5031438;28;20238;-77
2022/01/06 13:55:59;;;;;;;;;;;;;;;;;;5037040;28;19974;-77
2022/01/06 13:58:25;;;;;;;;;;;;;;;;;;5035661;28;19917;-76
2022/01/06 14:01:02;;;;;;;;;;;;;;;;;;5036757;28;20404;-76
2022/01/06 14:03:39;;;;;;;;;;;;;;;;;;5017296;28;19921;-76
2022/01/06 14:06:06;;;;;;;;;;;;;;;;;;5017598;28;19918;-76
2022/01/06 14:08:31;;;;;;;;;;;;;;;;;;5034971;28;19932;-77
2022/01/06 14:10:59;;;;;;;;;;;;;;;;;;5052532;28;19921;-76
2022/01/06 14:13:26;;;;;;;;;;;;;;;;;;5035861;28;20365;-76
2022/01/06 14:15:51;;;;;;;;;;;;;;;;;;5036378;28;19928;-76
2022/01/06 14:18:18;;;;;;;;;;;;;;;;;;5035730;28;20256;-76
2022/01/06 14:20:43;;;;;;;;;;;;;;;;;;5036448;28;19917;-76
2022/01/06 14:23:08;;;;;;;;;;;;;;;;;;5035612;28;19917;-77
2022/01/06 14:25:36;;;;;;;;;;;;;;;;;;5036324;28;19948;-76
2022/01/06 14:28:01;;;;;;;;;;;;;;;;;;5027928;28;19921;-75
2022/01/06 14:30:26;;;;;;;;;;;;;;;;;;5032338;28;19936;-76
2022/01/06 14:32:51;;;;;;;;;;;;;;;;;;5036433;28;20032;-76
2022/01/06 14:35:17;;;;;;;;;;;;;;;;;;5029433;28;19924;-76
2022/01/06 14:37:42;;;;;;;;;;;;;;;;;;5033994;28;19921;-76
2022/01/06 14:40:13;;;;;;;;;;;;;;;;;;5031737;28;20362;-76
2022/01/06 14:42:38;;;;;;;;;;;;;;;;;;5034559;28;19924;-76
2022/01/06 14:45:14;;;;;;;;;;;;;;;;;;5036177;28;19918;-76
2022/01/06 14:47:41;;;;;;;;;;;;;;;;;;5040349;28;19917;-76
2022/01/06 14:50:07;;;;;;;;;;;;;;;;;;5035981;28;20415;-75
2022/01/06 14:52:32;;;;;;;;;;;;;;;;;;5031148;28;20008;-76
2022/01/06 14:54:58;;;;;;;;;;;;;;;;;;5029099;28;19996;-76
2022/01/06 14:57:25;;;;;;;;;;;;;;;;;;5032220;28;20361;-75
2022/01/06 14:59:50;;;;;;;;;;;;;;;;;;5034431;28;20314;-75
2022/01/06 15:02:15;;;;;;;;;;;;;;;;;;5034239;28;19919;-76
2022/01/06 15:04:41;;;;;;;;;;;;;;;;;;5035458;28;19917;-76
2022/01/06 15:07:07;;;;;;;;;;;;;;;;;;5032354;28;19936;-75
2022/01/06 15:09:32;;;;;;;;;;;;;;;;;;5033053;28;19917;-76
2022/01/06 15:11:57;;;;;;;;;;;;;;;;;;5035692;28;19913;-76
2022/01/06 15:14:22;;;;;;;;;;;;;;;;;;5035000;28;19924;-76
2022/01/06 15:16:48;;;;;;;;;;;;;;;;;;5031515;28;19913;-76
2022/01/06 15:19:15;;;;;;;;;;;;;;;;;;5029817;28;19917;-75
2022/01/06 15:21:40;;;;;;;;;;;;;;;;;;5015847;28;20351;-75
2022/01/06 15:24:06;;;;;;;;;;;;;;;;;;5025768;28;19921;-74
2022/01/06 15:26:32;;;;;;;;;;;;;;;;;;5051883;28;20342;-75
2022/01/06 15:28:57;;;;;;;;;;;;;;;;;;5034661;28;20003;-75
2022/01/06 15:31:22;;;;;;;;;;;;;;;;;;5035453;28;19936;-77
2022/01/06 15:33:48;;;;;;;;;;;;;;;;;;5046934;28;20373;-75
2022/01/06 15:36:13;;;;;;;;;;;;;;;;;;5035094;28;19917;-75
2022/01/06 15:38:47;;;;;;;;;;;;;;;;;;5033734;28;19921;-75
2022/01/06 15:41:34;;;;;;;;;;;;;;;;;;5034657;28;19999;-75
2022/01/06 15:44:05;;;;;;;;;;;;;;;;;;5031866;28;20015;-76
2022/01/06 15:46:31;;;;;;;;;;;;;;;;;;5034530;28;19967;-75
2022/01/06 15:58:41;;;;;;;;;;;;;;;;;;5024144;28;19947;-76
2022/01/06 16:06:55;;;;;;;;;;;;;;;;;;5034826;28;20038;-76
2022/01/06 16:09:21;;;;;;;;;;;;;;;;;;5046027;28;19913;-76
2022/01/06 16:18:31;;;;;;;;;;;;;;;;;;4991964;28;20049;-76
2022/01/06 16:20:56;;;;;;;;;;;;;;;;;;4986369;28;20034;-76
2022/01/06 16:23:22;;;;;;;;;;;;;;;;;;4986823;28;20367;-76
2022/01/06 16:25:47;;;;;;;;;;;;;;;;;;4992795;28;19977;-76
2022/01/06 16:28:12;;;;;;;;;;;;;;;;;;4996701;28;19914;-76
2022/01/06 16:30:47;;;;;;;;;;;;;;;;;;4992798;28;19929;-76
2022/01/06 16:33:13;;;;;;;;;;;;;;;;;;5012049;28;19970;-76
2022/01/06 16:35:41;;;;;;;;;;;;;;;;;;4984406;28;20009;-78
2022/01/06 16:38:06;;;;;;;;;;;;;;;;;;4991848;28;19958;-76
2022/01/06 16:40:32;;;;;;;;;;;;;;;;;;4998697;28;19913;-76
2022/01/06 16:42:57;;;;;;;;;;;;;;;;;;5006636;28;19932;-76
2022/01/06 16:45:22;;;;;;;;;;;;;;;;;;5000430;28;20322;-76
2022/01/06 16:47:48;;;;;;;;;;;;;;;;;;4991086;28;20037;-76
2022/01/06 16:50:13;;;;;;;;;;;;;;;;;;5032940;28;19917;-76
2022/01/06 16:52:38;;;;;;;;;;;;;;;;;;5033818;28;19913;-76
2022/01/06 16:55:09;;;;;;;;;;;;;;;;;;5032878;28;19949;-78
2022/01/06 16:57:34;;;;;;;;;;;;;;;;;;5033942;28;20289;-78
2022/01/06 16:59:59;;;;;;;;;;;;;;;;;;5034245;28;20015;-78
2022/01/06 17:02:25;;;;;;;;;;;;;;;;;;5037995;28;19988;-77
2022/01/06 17:04:51;;;;;;;;;;;;;;;;;;5038303;28;20024;-77
2022/01/06 17:07:17;;;;;;;;;;;;;;;;;;5038164;28;19975;-77
2022/01/06 17:09:45;;;;;;;;;;;;;;;;;;5038220;28;19921;-77
2022/01/06 17:12:10;;;;;;;;;;;;;;;;;;5037879;28;19941;-76
2022/01/06 17:14:38;;;;;;;;;;;;;;;;;;5037169;28;19975;-77
2022/01/06 17:17:06;;;;;;;;;;;;;;;;;;5038039;28;19948;-77
2022/01/06 17:19:31;;;;;;;;;;;;;;;;;;5037119;28;19916;-77
2022/01/06 17:21:58;;;;;;;;;;;;;;;;;;5019979;28;19963;-77
2022/01/06 17:24:23;;;;;;;;;;;;;;;;;;5032905;28;19925;-77
2022/01/06 17:26:51;;;;;;;;;;;;;;;;;;5037894;28;20334;-77